Форум Города N

Информация о пользователе

Привет, Гость! Войдите или зарегистрируйтесь.


Вы здесь » Форум Города N » Black Metal


Black Metal

Тем 481 страница 527 из 527

Тема Ответов Просмотров Последнее сообщение
481 Blackwinds [Black Metal]  Gloomyrain
0 75 2008-04-29 20:55:47  Gloomyrain
482 Weltkrieg [Black Metal]  MoonTemple
1 145 2008-04-26 14:13:57  Gloomyrain
483 Bann [Depressive Black]  MoonTemple
3 130 2008-04-26 14:02:29  HA7tur
484 Sorgsvart [Folk Black]  MoonTemple
1 173 2008-04-25 20:15:34  Tony_colpachNIK
3 171 2008-04-24 22:18:17  HA7tur
1 122 2008-04-24 19:10:33  dying_inside
6 333 2008-04-24 12:48:28  Gloomyrain
0 81 2008-04-22 22:49:50  Gloomyrain
489 Malus [Black Metal, deu]  Indiependent
1 103 2008-04-22 07:36:20  Gloomyrain
1 114 2008-04-18 21:38:14  Gloomyrain
2 168 2008-04-17 09:58:42  Neckrion
0 132 2008-04-17 04:20:30  VedmaK
9 333 2008-04-17 03:14:10  VedmaK
0 91 2008-04-16 05:27:08  Erroneous
0 107 2008-04-12 12:09:07  Gloomyrain
0 106 2008-04-11 22:14:36  Prohaar
0 114 2008-04-09 20:48:51  Erroneous
0 180 2008-04-09 20:22:56  Erroneous
6 306 2008-04-09 01:59:04  SatanGab
15 790 2008-04-06 18:55:45  SatanGab
0 113 2008-04-02 12:01:08  Крыс
502 Forsth [Black Metal, che]  Gloomyrain
7 458 2008-04-01 15:22:46  Gloomyrain
0 95 2008-03-28 16:44:46  Крыс
5 488 2008-03-27 21:08:11  Gloomyrain
9 288 2008-03-26 16:52:34  Gloomyrain
3 180 2008-03-19 06:53:27  Gloomyrain
507 Haemoth [Black]  Neckrion
0 108 2008-03-15 13:48:06  Neckrion
0 101 2008-03-14 18:24:10  Gloomyrain
0 95 2008-03-13 10:27:46  Neckrion
2 168 2008-03-06 14:49:38  Gloomyrain
0 94 2008-03-04 17:09:01  Gloomyrain
0 212 2008-02-26 01:50:07  Крыс
513 Necronoclast [Black Metal]  Indiependent
0 129 2008-02-22 22:51:31  Indiependent
4 1017 2008-02-19 20:34:21  Aka_Virr
0 109 2008-02-14 14:50:07  Gloomyrain
3 300 2008-02-13 21:19:57  dying_inside
0 281 2008-02-12 16:55:51  Neckrion
9 786 2008-02-09 05:28:50  DasEinhorn
0 304 2008-02-08 23:13:32  Gloomyrain
2 263 2008-02-08 22:24:17  Gloomyrain
0 387 2008-02-05 19:38:17  Крыс
522 Grimm [folk metal]  Tony_colpachNIK
0 286 2008-02-02 21:29:49  Tony_colpachNIK
7 683 2008-02-02 14:50:46  MaXdi Vampire
0 432 2007-12-31 00:54:00  dying_inside
0 312 2007-12-26 20:25:02  gwar13
1 339 2007-12-21 12:38:30  Gloomyrain
527 Drama [Black Metal, rus]  maggot_corpse
0 760 2007-11-26 23:01:55  maggot_corpse

Вы здесь » Форум Города N » Black Metal


Рейтинг форумов | Создать форум бесплатно © 2007–2020 «QuadroSystems» LLC